Time;durP1;ratioP1;P1;durP2;ratioP2;P2;SDS_P1;SDS_P2;PMS_P1;PMS_P2;Temp;Humidity;BMP_temperature;BMP_pressure;BME280_temperature;BME280_humidity;BME280_pressure;Samples;Min_cycle;Max_cycle;Signal;HPM_P1;HPM_P2
2024/01/12 00:01:45;;;;;;;16.55;14.88;;;17.40;51.40;;;;;;5100575;28;20176;-69
2024/01/12 00:04:11;;;;;;;16.08;14.50;;;17.40;51.40;;;;;;5098152;28;20219;-69
2024/01/12 00:06:38;;;;;;;16.67;15.05;;;17.40;51.50;;;;;;5099625;28;20192;-68
2024/01/12 00:09:04;;;;;;;17.75;15.95;;;17.40;51.50;;;;;;5092081;28;20189;-71
2024/01/12 00:11:30;;;;;;;16.25;14.65;;;17.40;51.40;;;;;;5093268;28;20185;-69
2024/01/12 00:13:56;;;;;;;16.67;14.88;;;17.40;51.40;;;;;;5103463;28;20257;-69
2024/01/12 00:16:21;;;;;;;17.20;14.98;;;17.40;51.50;;;;;;5100589;28;20218;-68
2024/01/12 00:18:47;;;;;;;17.00;15.15;;;17.40;51.40;;;;;;5100220;28;20253;-69
2024/01/12 00:21:14;;;;;;;16.13;14.48;;;17.40;51.40;;;;;;5079250;28;20188;-69
2024/01/12 00:23:39;;;;;;;17.23;15.43;;;17.40;51.30;;;;;;5081175;28;20200;-69
2024/01/12 00:26:05;;;;;;;16.42;14.73;;;17.40;51.40;;;;;;5093003;28;20184;-68
2024/01/12 00:28:32;;;;;;;16.58;14.88;;;17.40;51.40;;;;;;5101672;28;20197;-68
2024/01/12 00:30:57;;;;;;;17.40;14.88;;;17.40;51.30;;;;;;5102169;28;20192;-71
2024/01/12 00:33:23;;;;;;;16.17;14.57;;;17.40;51.30;;;;;;5103337;28;20192;-69
2024/01/12 00:35:49;;;;;;;16.17;14.48;;;17.40;51.40;;;;;;5081846;28;20183;-68
2024/01/12 00:38:15;;;;;;;16.55;14.85;;;17.40;51.40;;;;;;5099647;28;20221;-68
2024/01/12 00:40:41;;;;;;;16.35;14.65;;;17.40;51.30;;;;;;5085721;28;20256;-68
2024/01/12 00:43:10;;;;;;;16.33;14.63;;;17.40;51.30;;;;;;5098004;28;20209;-68
2024/01/12 00:45:36;;;;;;;16.02;14.40;;;17.40;51.40;;;;;;5078445;28;20209;-69
2024/01/12 00:48:04;;;;;;;17.13;15.43;;;17.40;51.30;;;;;;5102191;28;20271;-69
2024/01/12 00:50:30;;;;;;;16.55;14.85;;;17.40;51.40;;;;;;5097303;28;20200;-69
2024/01/12 00:52:56;;;;;;;17.08;15.10;;;17.40;51.30;;;;;;5077941;28;20184;-68
2024/01/12 00:55:21;;;;;;;15.65;13.95;;;17.40;51.40;;;;;;5077936;28;20213;-68
2024/01/12 00:57:47;;;;;;;16.38;14.77;;;17.40;51.30;;;;;;5086978;28;20216;-68
2024/01/12 01:00:13;;;;;;;16.65;14.95;;;17.40;51.30;;;;;;5076992;28;20237;-70
2024/01/12 01:02:39;;;;;;;15.98;14.27;;;17.40;51.30;;;;;;5100652;28;20192;-68
2024/01/12 01:05:05;;;;;;;16.20;14.50;;;17.40;51.30;;;;;;5083408;28;20212;-69
2024/01/12 01:07:31;;;;;;;16.13;14.43;;;17.40;51.30;;;;;;5091927;28;20263;-69
2024/01/12 01:09:57;;;;;;;16.40;14.75;;;17.40;51.40;;;;;;5097046;28;20722;-70
2024/01/12 01:12:22;;;;;;;16.73;15.02;;;17.40;51.30;;;;;;5099431;28;20188;-70
2024/01/12 01:14:48;;;;;;;15.98;14.20;;;17.40;51.30;;;;;;5081113;28;20219;-70
2024/01/12 01:17:14;;;;;;;16.05;14.45;;;17.40;51.30;;;;;;5094410;28;20196;-70
2024/01/12 01:19:39;;;;;;;14.50;13.10;;;17.40;51.30;;;;;;5079402;28;20189;-71
2024/01/12 01:22:05;;;;;;;15.18;13.68;;;17.40;51.30;;;;;;5100274;28;20192;-69
2024/01/12 01:24:31;;;;;;;16.45;14.75;;;17.40;51.30;;;;;;5093797;28;20214;-70
2024/01/12 01:26:57;;;;;;;15.30;13.80;;;17.40;51.30;;;;;;5090845;28;20259;-70
2024/01/12 01:29:23;;;;;;;15.95;14.27;;;17.40;51.30;;;;;;5094116;28;20279;-70
2024/01/12 01:31:49;;;;;;;15.45;13.88;;;17.40;51.30;;;;;;5090257;28;20189;-68
2024/01/12 01:34:16;;;;;;;15.85;14.15;;;17.40;51.30;;;;;;5090301;28;20217;-68
2024/01/12 01:36:42;;;;;;;14.88;13.38;;;17.40;51.30;;;;;;5095869;28;20217;-68
2024/01/12 01:39:08;;;;;;;14.82;13.25;;;17.40;51.40;;;;;;5090480;28;20652;-70
2024/01/12 01:41:35;;;;;;;15.63;14.02;;;17.40;51.30;;;;;;5095929;28;20185;-70
2024/01/12 01:44:01;;;;;;;15.68;14.07;;;17.40;51.30;;;;;;5098976;28;20219;-68
2024/01/12 01:46:28;;;;;;;14.55;13.05;;;17.40;51.30;;;;;;5091379;28;20185;-68
2024/01/12 01:48:54;;;;;;;15.30;13.70;;;17.40;51.30;;;;;;5093710;28;20242;-70
2024/01/12 01:51:21;;;;;;;14.45;12.93;;;17.40;51.30;;;;;;5079708;28;20184;-71
2024/01/12 01:53:47;;;;;;;14.95;13.45;;;17.40;51.30;;;;;;5097128;28;20219;-70
2024/01/12 01:56:14;;;;;;;15.18;13.68;;;17.40;51.30;;;;;;5098876;28;20193;-71
2024/01/12 01:58:42;;;;;;;14.48;12.82;;;17.40;51.40;;;;;;5094999;28;20217;-68
2024/01/12 02:01:09;;;;;;;14.30;12.88;;;17.40;51.30;;;;;;5097267;28;20196;-72
2024/01/12 02:03:36;;;;;;;14.85;13.35;;;17.40;51.30;;;;;;5098400;28;20185;-70
2024/01/12 02:06:03;;;;;;;14.52;13.07;;;17.40;51.30;;;;;;5097843;28;20186;-68
2024/01/12 02:08:29;;;;;;;14.70;13.30;;;17.40;51.30;;;;;;5094005;28;20189;-70
2024/01/12 02:10:56;;;;;;;14.68;13.13;;;17.40;51.20;;;;;;5078194;28;20194;-69
2024/01/12 02:13:22;;;;;;;14.75;13.25;;;17.40;51.20;;;;;;5090998;28;20200;-69
2024/01/12 02:15:49;;;;;;;14.90;13.43;;;17.40;51.20;;;;;;5079610;28;20204;-68
2024/01/12 02:18:15;;;;;;;13.82;12.45;;;17.40;51.30;;;;;;5105352;28;20212;-68
2024/01/12 02:20:41;;;;;;;14.82;13.32;;;17.40;51.20;;;;;;5085572;28;20196;-68
2024/01/12 02:23:07;;;;;;;13.75;12.45;;;17.40;51.20;;;;;;5103522;28;20236;-68
2024/01/12 02:25:33;;;;;;;13.30;11.90;;;17.40;51.30;;;;;;5102136;28;20227;-68
2024/01/12 02:27:59;;;;;;;14.50;13.10;;;17.50;51.30;;;;;;5100410;28;20183;-68
2024/01/12 02:30:26;;;;;;;13.95;12.65;;;17.40;51.30;;;;;;5100980;28;20707;-68
2024/01/12 02:32:51;;;;;;;13.70;12.30;;;17.40;51.30;;;;;;5112861;28;20256;-68
2024/01/12 02:35:17;;;;;;;13.85;12.40;;;17.40;51.20;;;;;;5102233;28;20205;-69
2024/01/12 02:37:43;;;;;;;14.45;12.95;;;17.40;51.30;;;;;;5105752;28;20701;-68
2024/01/12 02:40:09;;;;;;;14.88;13.25;;;17.40;51.20;;;;;;5093611;28;20180;-69
2024/01/12 02:42:35;;;;;;;13.60;12.20;;;17.40;51.20;;;;;;5094046;28;20185;-69
2024/01/12 02:45:01;;;;;;;13.15;11.85;;;17.40;51.20;;;;;;5098272;28;20749;-69
2024/01/12 02:47:26;;;;;;;14.13;12.73;;;17.40;51.30;;;;;;5098477;28;20271;-68
2024/01/12 02:49:52;;;;;;;14.50;13.10;;;17.40;51.20;;;;;;5093810;28;20294;-69
2024/01/12 02:52:18;;;;;;;13.98;12.48;;;17.40;51.10;;;;;;5078900;28;20196;-69
2024/01/12 02:54:44;;;;;;;14.15;12.75;;;17.40;51.20;;;;;;5095844;28;20220;-68
2024/01/12 02:57:09;;;;;;;13.77;12.38;;;17.40;51.10;;;;;;5076338;28;20205;-69
2024/01/12 02:59:35;;;;;;;13.88;12.38;;;17.40;51.20;;;;;;5097074;28;20177;-69
2024/01/12 03:02:01;;;;;;;13.60;12.20;;;17.40;51.10;;;;;;5097997;28;20196;-69
2024/01/12 03:04:26;;;;;;;14.18;12.77;;;17.40;51.10;;;;;;5091917;28;20214;-69
2024/01/12 03:06:52;;;;;;;13.48;12.15;;;17.40;51.10;;;;;;5096341;28;20184;-69
2024/01/12 03:09:18;;;;;;;13.15;11.77;;;17.40;51.10;;;;;;5078603;28;20200;-69
2024/01/12 03:11:44;;;;;;;14.02;12.63;;;17.40;51.10;;;;;;5080078;28;20195;-69
2024/01/12 03:14:09;;;;;;;13.98;12.35;;;17.40;51.20;;;;;;5092712;28;20216;-70
2024/01/12 03:16:35;;;;;;;13.07;11.68;;;17.40;51.10;;;;;;5086371;28;20184;-70
2024/01/12 03:19:01;;;;;;;13.73;12.35;;;17.40;51.10;;;;;;5075846;28;20219;-69
2024/01/12 03:21:26;;;;;;;13.88;12.48;;;17.40;51.10;;;;;;5095289;28;20180;-69
2024/01/12 03:23:52;;;;;;;12.82;11.52;;;17.40;51.10;;;;;;5100959;28;20208;-69
2024/01/12 03:26:18;;;;;;;13.73;12.32;;;17.40;51.10;;;;;;5077910;28;20191;-69
2024/01/12 03:28:44;;;;;;;13.40;11.85;;;17.40;51.10;;;;;;5095442;28;20193;-69
2024/01/12 03:31:10;;;;;;;13.32;11.82;;;17.40;51.10;;;;;;5097301;28;20224;-69
2024/01/12 03:33:37;;;;;;;13.13;11.82;;;17.40;51.10;;;;;;5096215;28;20192;-69
2024/01/12 03:36:07;;;;;;;12.98;11.65;;;17.40;51.10;;;;;;5077367;28;20271;-70
2024/01/12 03:38:33;;;;;;;13.60;12.10;;;17.40;51.10;;;;;;5109167;28;20233;-69
2024/01/12 03:40:58;;;;;;;13.98;12.57;;;17.40;51.10;;;;;;5095881;28;20219;-69
2024/01/12 03:43:24;;;;;;;12.65;11.45;;;17.40;51.10;;;;;;5077219;28;20652;-69
2024/01/12 03:45:50;;;;;;;12.70;11.50;;;17.40;51.10;;;;;;5097083;28;20189;-69
2024/01/12 03:48:16;;;;;;;13.00;11.68;;;17.40;51.10;;;;;;5075634;28;20660;-69
2024/01/12 03:50:41;;;;;;;12.75;11.45;;;17.30;51.00;;;;;;5075413;28;20185;-72
2024/01/12 03:53:07;;;;;;;12.57;11.38;;;17.40;51.00;;;;;;5092349;28;20250;-69
2024/01/12 03:55:33;;;;;;;13.40;11.95;;;17.40;51.10;;;;;;5092010;28;20283;-70
2024/01/12 03:57:59;;;;;;;12.60;11.20;;;17.40;51.10;;;;;;5093189;28;20786;-69
2024/01/12 04:00:24;;;;;;;12.38;11.18;;;17.40;51.10;;;;;;5086035;28;20186;-69
2024/01/12 04:02:50;;;;;;;13.38;11.98;;;17.40;51.10;;;;;;5087684;28;20602;-69
2024/01/12 04:05:16;;;;;;;13.73;12.02;;;17.40;51.00;;;;;;5091908;28;20212;-69
2024/01/12 04:07:42;;;;;;;12.00;10.80;;;17.40;50.90;;;;;;5084832;28;20193;-68
2024/01/12 04:10:08;;;;;;;11.88;10.68;;;17.40;51.10;;;;;;5074976;28;20249;-68
2024/01/12 04:12:34;;;;;;;12.13;10.85;;;17.40;51.00;;;;;;5091982;28;20276;-69
2024/01/12 04:15:00;;;;;;;13.23;11.93;;;17.40;50.90;;;;;;5108650;28;20246;-70
2024/01/12 04:17:25;;;;;;;12.43;11.18;;;17.40;51.00;;;;;;5074709;28;20241;-69
2024/01/12 04:19:51;;;;;;;11.38;10.18;;;17.40;51.00;;;;;;5067476;28;20194;-71
2024/01/12 04:22:17;;;;;;;12.25;11.05;;;17.40;51.00;;;;;;5081492;28;20216;-69
2024/01/12 04:24:42;;;;;;;11.70;10.50;;;17.40;51.00;;;;;;5091536;28;20232;-71
2024/01/12 04:27:08;;;;;;;11.75;10.55;;;17.40;51.00;;;;;;5083381;28;20189;-69
2024/01/12 04:29:34;;;;;;;12.25;11.05;;;17.40;50.90;;;;;;5071359;28;20235;-69
2024/01/12 04:32:00;;;;;;;12.00;10.80;;;17.30;50.80;;;;;;5088799;28;20189;-69
2024/01/12 04:34:26;;;;;;;12.65;11.32;;;17.40;51.00;;;;;;5068691;28;20205;-69
2024/01/12 04:36:55;;;;;;;13.27;11.18;;;17.40;51.00;;;;;;5091212;28;20189;-69
2024/01/12 04:39:21;;;;;;;12.77;10.90;;;17.40;51.00;;;;;;5091384;28;20189;-70
2024/01/12 04:41:47;;;;;;;12.50;11.05;;;17.40;51.00;;;;;;5074669;28;20177;-69
2024/01/12 04:44:13;;;;;;;11.38;10.27;;;17.40;51.00;;;;;;5098677;28;20201;-69
2024/01/12 04:46:39;;;;;;;11.43;10.23;;;17.40;50.90;;;;;;5092454;28;20196;-70
2024/01/12 04:49:05;;;;;;;11.85;10.52;;;17.30;50.80;;;;;;5091011;28;20193;-69
2024/01/12 04:51:31;;;;;;;12.77;11.25;;;17.40;50.90;;;;;;5074384;28;20185;-70
2024/01/12 04:53:57;;;;;;;11.80;10.63;;;17.30;50.80;;;;;;5075537;28;20215;-69
2024/01/12 04:56:22;;;;;;;12.63;11.07;;;17.30;50.80;;;;;;5075464;28;20177;-69
2024/01/12 04:58:48;;;;;;;12.05;10.75;;;17.40;50.90;;;;;;5092865;28;20215;-69
2024/01/12 05:01:14;;;;;;;11.65;10.45;;;17.30;50.80;;;;;;5087535;28;20191;-69
2024/01/12 05:03:44;;;;;;;12.10;10.90;;;17.30;50.80;;;;;;5072023;28;20181;-69
2024/01/12 05:06:10;;;;;;;11.90;10.65;;;17.30;50.80;;;;;;5091680;28;20177;-69
2024/01/12 05:08:37;;;;;;;11.70;10.60;;;17.30;50.80;;;;;;5087842;28;20623;-69
2024/01/12 05:11:03;;;;;;;12.00;10.60;;;17.40;50.90;;;;;;5090284;28;20280;-69
2024/01/12 05:13:29;;;;;;;11.15;9.95;;;17.30;51.40;;;;;;5091058;28;20189;-69
2024/01/12 05:15:55;;;;;;;11.20;9.95;;;17.40;50.90;;;;;;5105518;28;20185;-69
2024/01/12 05:18:22;;;;;;;11.27;10.13;;;17.40;50.80;;;;;;5076012;28;20242;-69
2024/01/12 05:20:47;;;;;;;12.02;10.75;;;17.30;50.80;;;;;;5091567;28;20177;-69
2024/01/12 05:23:13;;;;;;;11.43;10.32;;;17.30;50.80;;;;;;5074377;28;20199;-69
2024/01/12 05:25:39;;;;;;;11.15;10.05;;;17.40;50.90;;;;;;5099133;28;20218;-69
2024/01/12 05:28:05;;;;;;;11.77;10.55;;;17.40;50.90;;;;;;5092069;28;20202;-69
2024/01/12 05:30:31;;;;;;;11.13;9.95;;;17.40;50.90;;;;;;5074469;28;20196;-69
2024/01/12 05:32:56;;;;;;;11.90;10.13;;;17.30;50.70;;;;;;5071212;28;20185;-68
2024/01/12 05:35:22;;;;;;;11.18;10.05;;;17.30;50.70;;;;;;5073624;28;20204;-68
2024/01/12 05:37:48;;;;;;;12.07;10.88;;;17.30;50.80;;;;;;5090795;28;20213;-69
2024/01/12 05:40:14;;;;;;;11.10;9.88;;;17.30;50.80;;;;;;5099890;28;20181;-69
2024/01/12 05:42:39;;;;;;;11.80;10.10;;;17.30;50.70;;;;;;5098723;28;20189;-69
2024/01/12 05:45:06;;;;;;;10.77;9.77;;;17.30;51.30;;;;;;5075831;28;20209;-69
2024/01/12 05:47:31;;;;;;;11.27;10.18;;;17.30;50.70;;;;;;5097257;28;20215;-68
2024/01/12 05:49:57;;;;;;;11.43;10.23;;;17.30;50.70;;;;;;5105187;28;20188;-69
2024/01/12 05:52:23;;;;;;;11.38;10.18;;;17.30;50.70;;;;;;5105467;28;20189;-68
2024/01/12 05:54:51;;;;;;;11.50;10.40;;;17.30;50.70;;;;;;5088520;28;20212;-68
2024/01/12 05:57:17;;;;;;;11.90;10.55;;;17.20;50.70;;;;;;5096930;28;20208;-68
2024/01/12 05:59:43;;;;;;;11.02;9.93;;;17.30;50.70;;;;;;5105297;28;20188;-69
2024/01/12 06:02:13;;;;;;;11.13;10.02;;;17.30;50.60;;;;;;5090558;28;20199;-69
2024/01/12 06:04:39;;;;;;;11.23;10.13;;;17.30;50.70;;;;;;5116793;28;20204;-70
2024/01/12 06:07:05;;;;;;;12.68;11.07;;;17.20;50.50;;;;;;5114589;28;20228;-68
2024/01/12 06:09:30;;;;;;;10.85;9.75;;;17.30;50.60;;;;;;5110676;28;20188;-68
2024/01/12 06:11:56;;;;;;;11.90;10.65;;;17.30;50.50;;;;;;5124835;27;20188;-70
2024/01/12 06:14:22;;;;;;;11.65;10.50;;;17.30;50.60;;;;;;5112293;28;20220;-69
2024/01/12 06:16:48;;;;;;;11.85;10.65;;;17.30;50.40;;;;;;5089137;28;20197;-69
2024/01/12 06:19:14;;;;;;;10.68;9.65;;;17.30;50.40;;;;;;5115368;28;20315;-69
2024/01/12 06:21:41;;;;;;;11.48;10.32;;;17.30;50.50;;;;;;5107019;28;20177;-69
2024/01/12 06:24:08;;;;;;;11.95;10.75;;;17.30;50.50;;;;;;5094914;28;20243;-69
2024/01/12 06:26:34;;;;;;;11.15;9.95;;;17.30;50.40;;;;;;5096742;28;20173;-69
2024/01/12 06:29:00;;;;;;;11.45;10.15;;;17.30;50.40;;;;;;5087805;28;20199;-69
2024/01/12 06:31:32;;;;;;;12.18;10.90;;;17.30;50.50;;;;;;5086819;28;20184;-69
2024/01/12 06:33:57;;;;;;;11.07;9.98;;;17.30;50.50;;;;;;5115682;28;20271;-69
2024/01/12 06:36:23;;;;;;;11.95;10.75;;;17.30;50.40;;;;;;5111936;28;20294;-69
2024/01/12 06:38:49;;;;;;;11.63;10.50;;;17.30;50.40;;;;;;5104237;28;20220;-69
2024/01/12 06:41:14;;;;;;;10.93;9.82;;;17.30;50.50;;;;;;5080504;28;20197;-69
2024/01/12 06:43:40;;;;;;;12.15;10.95;;;17.30;50.40;;;;;;5079502;28;20192;-69
2024/01/12 06:46:06;;;;;;;11.30;10.20;;;17.30;50.50;;;;;;5094947;28;20265;-69
2024/01/12 06:48:34;;;;;;;11.50;10.40;;;17.30;50.40;;;;;;5087072;28;20188;-69
2024/01/12 06:51:00;;;;;;;11.18;10.07;;;17.30;50.50;;;;;;5081683;28;20185;-69
2024/01/12 06:53:26;;;;;;;11.00;9.90;;;17.30;50.40;;;;;;5086936;28;20184;-69
2024/01/12 06:55:51;;;;;;;11.80;10.60;;;17.30;50.30;;;;;;5083687;28;20195;-69
2024/01/12 06:58:17;;;;;;;11.15;10.05;;;17.30;50.30;;;;;;5108257;28;20216;-69
2024/01/12 07:00:43;;;;;;;12.35;10.70;;;17.30;50.40;;;;;;5090040;28;20184;-69
2024/01/12 07:03:09;;;;;;;10.82;9.82;;;17.30;50.40;;;;;;5077267;28;20321;-69
2024/01/12 07:05:34;;;;;;;10.57;9.57;;;17.30;50.30;;;;;;5100873;28;20200;-69
2024/01/12 07:08:00;;;;;;;11.40;10.30;;;17.30;50.30;;;;;;5083556;28;20200;-68
2024/01/12 07:10:26;;;;;;;10.48;9.38;;;17.20;50.30;;;;;;5080044;28;20195;-69
2024/01/12 07:12:51;;;;;;;12.52;11.25;;;17.30;50.30;;;;;;5103524;28;20242;-69
2024/01/12 07:15:18;;;;;;;11.35;10.20;;;17.30;50.30;;;;;;5096884;28;20208;-69
2024/01/12 07:17:49;;;;;;;11.15;10.05;;;17.30;50.40;;;;;;5080383;28;20303;-69
2024/01/12 07:20:15;;;;;;;10.68;9.57;;;17.30;50.40;;;;;;5077710;28;20181;-70
2024/01/12 07:22:41;;;;;;;11.32;10.23;;;17.30;50.30;;;;;;5080803;28;20173;-69
2024/01/12 07:25:07;;;;;;;11.02;9.93;;;17.30;50.30;;;;;;5092612;28;20205;-69
2024/01/12 07:27:33;;;;;;;11.95;10.80;;;17.20;50.30;;;;;;5087389;28;20185;-68
2024/01/12 07:29:58;;;;;;;12.15;10.95;;;17.30;50.40;;;;;;5103484;28;20191;-68
2024/01/12 07:32:24;;;;;;;11.57;10.27;;;17.30;50.30;;;;;;5087201;28;20188;-69
2024/01/12 07:34:50;;;;;;;12.35;11.05;;;17.30;50.30;;;;;;5097409;28;20200;-70
2024/01/12 07:37:16;;;;;;;12.43;11.13;;;17.30;50.30;;;;;;5082405;28;20217;-69
2024/01/12 07:39:42;;;;;;;11.68;10.52;;;17.20;50.20;;;;;;5105472;28;20184;-69
2024/01/12 07:42:08;;;;;;;12.45;10.63;;;17.30;50.30;;;;;;5101684;28;20208;-70
2024/01/12 07:44:37;;;;;;;12.50;11.20;;;17.20;50.30;;;;;;5103765;28;20234;-69
2024/01/12 07:47:03;;;;;;;11.50;10.40;;;17.30;50.30;;;;;;5083945;28;20187;-69
2024/01/12 07:49:28;;;;;;;12.20;10.90;;;17.30;50.30;;;;;;5092329;28;20263;-69
2024/01/12 07:51:54;;;;;;;12.80;11.60;;;17.30;50.30;;;;;;5088786;28;20188;-70
2024/01/12 07:54:20;;;;;;;12.18;10.98;;;17.30;50.20;;;;;;5108977;28;20215;-69
2024/01/12 07:56:45;;;;;;;11.60;10.40;;;17.30;50.30;;;;;;5099752;28;20181;-70
2024/01/12 07:59:12;;;;;;;12.35;11.07;;;17.30;50.30;;;;;;5100508;28;20624;-69
2024/01/12 08:01:40;;;;;;;12.45;11.15;;;17.30;50.30;;;;;;5098270;28;20272;-69
2024/01/12 08:04:06;;;;;;;11.80;10.60;;;17.30;50.30;;;;;;5093178;28;20704;-69
2024/01/12 08:06:32;;;;;;;11.25;10.05;;;17.30;50.30;;;;;;5085265;28;20180;-70
2024/01/12 08:08:58;;;;;;;12.15;10.95;;;17.30;50.20;;;;;;5100157;28;20547;-69
2024/01/12 08:11:24;;;;;;;12.48;11.18;;;17.20;50.20;;;;;;5094467;28;20675;-69
2024/01/12 08:13:49;;;;;;;12.15;10.95;;;17.30;50.20;;;;;;5101753;28;20593;-69
2024/01/12 08:16:15;;;;;;;12.68;11.38;;;17.20;50.20;;;;;;5100119;28;20198;-69
2024/01/12 08:18:41;;;;;;;12.55;11.27;;;17.20;50.20;;;;;;5086439;28;20212;-72
2024/01/12 08:21:07;;;;;;;12.93;11.52;;;17.30;50.20;;;;;;5098202;28;20191;-69
2024/01/12 08:23:33;;;;;;;12.77;11.45;;;17.20;50.20;;;;;;5104611;28;20223;-69
2024/01/12 08:25:59;;;;;;;13.45;12.05;;;17.20;50.20;;;;;;5094113;28;20181;-69
2024/01/12 08:28:24;;;;;;;13.63;12.27;;;17.20;50.10;;;;;;5085839;28;20553;-69
2024/01/12 08:30:50;;;;;;;14.10;12.70;;;17.20;50.20;;;;;;5101516;28;20188;-69
2024/01/12 08:33:16;;;;;;;13.65;12.25;;;17.20;50.20;;;;;;5090573;28;20272;-69
2024/01/12 08:35:42;;;;;;;14.60;12.73;;;17.20;50.20;;;;;;5107457;28;20283;-69
2024/01/12 08:38:08;;;;;;;13.30;11.90;;;17.20;50.20;;;;;;5105868;28;20216;-69
2024/01/12 08:40:33;;;;;;;12.98;11.73;;;17.20;50.20;;;;;;5095094;28;20180;-69
2024/01/12 08:43:01;;;;;;;13.07;11.77;;;17.20;50.20;;;;;;5099782;28;20674;-69
2024/01/12 08:45:27;;;;;;;13.43;12.02;;;17.30;50.20;;;;;;5102821;28;20738;-69
2024/01/12 08:47:52;;;;;;;12.60;11.30;;;17.30;50.30;;;;;;5083640;28;20197;-69
2024/01/12 08:50:18;;;;;;;14.05;12.63;;;17.30;50.20;;;;;;5097312;28;20267;-69
2024/01/12 08:52:44;;;;;;;13.38;11.98;;;17.30;50.30;;;;;;5080213;28;20222;-69
2024/01/12 08:55:10;;;;;;;13.73;12.27;;;17.30;50.80;;;;;;5090994;28;20216;-69
2024/01/12 08:57:36;;;;;;;14.30;12.27;;;17.30;51.40;;;;;;5109137;28;20203;-69
2024/01/12 09:00:06;;;;;;;13.55;12.20;;;17.30;53.90;;;;;;5105105;28;20199;-69
2024/01/12 09:02:32;;;;;;;13.95;12.45;;;17.30;54.40;;;;;;5092216;28;20188;-69
2024/01/12 09:04:58;;;;;;;12.80;11.60;;;17.30;52.80;;;;;;5096543;28;20250;-69
2024/01/12 09:07:23;;;;;;;16.10;13.27;;;17.30;53.20;;;;;;5084121;28;20269;-69
2024/01/12 09:09:49;;;;;;;14.45;12.90;;;17.30;51.90;;;;;;5085953;28;20193;-69
2024/01/12 09:12:15;;;;;;;15.23;12.70;;;17.30;53.30;;;;;;5102456;28;20196;-71
2024/01/12 09:14:41;;;;;;;15.32;13.73;;;17.30;52.30;;;;;;5097692;28;20265;-69
2024/01/12 09:17:07;;;;;;;15.38;13.77;;;17.30;51.20;;;;;;5103108;28;20188;-69
2024/01/12 09:19:32;;;;;;;15.65;14.05;;;17.30;50.20;;;;;;5095422;28;20185;-69
2024/01/12 09:21:58;;;;;;;16.23;13.88;;;17.30;50.60;;;;;;5081484;28;20566;-69
2024/01/12 09:24:24;;;;;;;16.50;14.48;;;17.40;52.70;;;;;;5079058;28;20205;-68
2024/01/12 09:26:50;;;;;;;16.70;14.25;;;17.30;52.70;;;;;;5078998;28;20188;-69
2024/01/12 09:29:15;;;;;;;16.73;14.65;;;17.30;54.20;;;;;;5096710;28;20275;-69
2024/01/12 09:31:41;;;;;;;17.58;14.88;;;17.40;54.00;;;;;;5102155;28;20185;-69
2024/01/12 09:34:07;;;;;;;17.15;15.27;;;17.30;50.20;;;;;;5101168;28;20215;-69
2024/01/12 09:36:32;;;;;;;16.98;14.77;;;17.30;50.20;;;;;;5081884;28;20192;-69
2024/01/12 09:38:58;;;;;;;17.70;15.75;;;17.30;50.20;;;;;;5098224;28;20209;-69
2024/01/12 09:41:43;;;;;;;16.38;14.52;;;17.40;50.30;;;;;;5080658;28;20189;-70
2024/01/12 09:44:12;;;;;;;17.63;15.23;;;17.40;50.20;;;;;;5099705;28;20294;-69
2024/01/12 09:47:04;;;;;;;17.25;14.77;;;17.40;50.30;;;;;;5082061;28;20172;-69
2024/01/12 09:49:31;;;;;;;19.73;16.17;;;17.40;50.20;;;;;;5091131;28;20224;-66
2024/01/12 09:51:59;;;;;;;19.42;15.57;;;17.40;50.30;;;;;;5081065;28;20185;-69
2024/01/12 09:54:25;;;;;;;19.40;16.83;;;17.40;50.30;;;;;;5096669;28;20215;-69
2024/01/12 09:56:58;;;;;;;18.40;16.50;;;17.40;50.50;;;;;;5103977;28;20664;-71
2024/01/12 09:59:27;;;;;;;18.52;16.38;;;17.40;50.30;;;;;;5099835;28;20200;-72
2024/01/12 10:01:52;;;;;;;18.65;16.67;;;17.40;50.30;;;;;;5081656;28;20168;-69
2024/01/12 10:04:18;;;;;;;21.10;17.83;;;17.40;50.30;;;;;;5096580;28;20664;-69
2024/01/12 10:06:44;;;;;;;17.98;16.08;;;17.40;50.30;;;;;;5104773;28;20183;-69
2024/01/12 10:09:10;;;;;;;19.48;16.02;;;17.40;50.30;;;;;;5095834;28;20204;-69
2024/01/12 10:11:36;;;;;;;19.27;16.75;;;17.40;50.30;;;;;;5082261;28;20188;-69
2024/01/12 10:14:01;;;;;;;19.58;16.17;;;17.40;50.30;;;;;;5105300;28;20219;-69
2024/01/12 10:16:30;;;;;;;17.70;15.88;;;17.40;50.30;;;;;;5091450;28;20199;-70
2024/01/12 10:18:57;;;;;;;19.08;16.35;;;17.40;50.30;;;;;;5075941;28;20225;-69
2024/01/12 10:21:24;;;;;;;18.52;16.23;;;17.40;50.30;;;;;;5099721;28;20189;-69
2024/01/12 10:24:06;;;;;;;19.70;16.55;;;17.40;50.30;;;;;;5090153;28;20205;-69
2024/01/12 10:26:32;;;;;;;18.58;15.25;;;17.40;50.30;;;;;;5080267;28;20184;-70
2024/01/12 10:29:03;;;;;;;17.85;15.70;;;17.50;50.40;;;;;;5097395;28;20189;-69
2024/01/12 10:31:29;;;;;;;17.67;15.40;;;17.40;50.30;;;;;;5097038;28;20200;-69
2024/01/12 10:34:00;;;;;;;17.90;16.00;;;17.40;50.40;;;;;;5102844;28;20208;-69
2024/01/12 10:36:30;;;;;;;18.42;16.00;;;17.50;50.40;;;;;;5103736;28;20200;-69
2024/01/12 10:38:59;;;;;;;17.35;15.52;;;17.50;50.70;;;;;;5101273;28;20205;-70
2024/01/12 10:41:26;;;;;;;17.83;15.93;;;17.50;50.50;;;;;;5098850;28;20593;-69
2024/01/12 10:43:54;;;;;;;18.48;16.25;;;17.40;50.40;;;;;;5097173;28;20254;-69
2024/01/12 10:46:33;;;;;;;17.13;15.15;;;17.40;50.50;;;;;;5102438;28;20678;-71
2024/01/12 10:49:10;;;;;;;18.10;15.90;;;17.50;50.50;;;;;;5105871;28;20188;-69
2024/01/12 10:51:47;;;;;;;18.30;15.80;;;17.50;50.60;;;;;;5105151;28;20202;-69
2024/01/12 10:54:23;;;;;;;17.55;15.40;;;17.50;51.90;;;;;;5098884;28;20292;-69
2024/01/12 10:56:49;;;;;;;16.70;14.98;;;17.50;52.30;;;;;;5110898;27;20184;-67
2024/01/12 10:59:15;;;;;;;17.63;14.85;;;17.50;52.90;;;;;;5093506;28;20310;-69
2024/01/12 11:01:41;;;;;;;16.48;14.75;;;17.50;52.50;;;;;;5080532;28;20267;-69
2024/01/12 11:04:09;;;;;;;16.77;14.82;;;17.50;50.80;;;;;;5101531;28;20212;-69
2024/01/12 11:06:36;;;;;;;16.83;14.25;;;17.50;50.60;;;;;;5086527;28;20181;-67
2024/01/12 11:09:03;;;;;;;16.30;14.60;;;17.50;50.60;;;;;;5095160;28;20189;-69
2024/01/12 11:11:42;;;;;;;16.38;14.57;;;17.50;50.60;;;;;;5074548;28;20182;-68
2024/01/12 11:14:08;;;;;;;15.85;14.23;;;17.50;50.60;;;;;;5080077;28;20396;-69
2024/01/12 11:16:35;;;;;;;15.07;13.48;;;17.50;50.60;;;;;;5107728;28;20591;-69
2024/01/12 11:19:00;;;;;;;16.20;14.35;;;17.50;50.60;;;;;;5099301;28;20215;-68
2024/01/12 11:21:26;;;;;;;16.33;13.90;;;17.60;50.80;;;;;;5101393;28;20192;-69
2024/01/12 11:23:53;;;;;;;16.05;14.35;;;17.60;50.80;;;;;;5083042;28;20249;-69
2024/01/12 11:26:20;;;;;;;15.30;13.70;;;17.60;50.80;;;;;;5076226;28;20237;-69
2024/01/12 11:28:48;;;;;;;15.57;13.98;;;17.50;50.70;;;;;;5083104;28;20187;-68
2024/01/12 11:31:25;;;;;;;14.80;13.30;;;17.60;50.80;;;;;;5076074;28;20221;-68
2024/01/12 11:33:58;;;;;;;14.52;13.13;;;17.60;50.80;;;;;;5092672;28;20285;-68
2024/01/12 11:36:29;;;;;;;14.75;13.15;;;17.60;50.80;;;;;;5089473;28;20196;-71
2024/01/12 11:38:59;;;;;;;13.63;12.23;;;17.60;50.80;;;;;;5078558;28;20236;-69
2024/01/12 11:41:30;;;;;;;14.90;13.30;;;17.60;50.80;;;;;;5093974;28;20271;-68
2024/01/12 11:43:57;;;;;;;13.95;12.55;;;17.60;50.80;;;;;;5078083;28;20204;-68
2024/01/12 11:46:24;;;;;;;14.00;12.50;;;17.60;50.80;;;;;;5095822;28;20181;-69
2024/01/12 11:48:51;;;;;;;13.77;12.25;;;17.60;50.90;;;;;;5078783;28;20196;-69
2024/01/12 11:51:29;;;;;;;13.43;12.13;;;17.60;50.90;;;;;;5087125;28;20204;-69
2024/01/12 11:53:58;;;;;;;13.75;12.23;;;17.60;50.90;;;;;;5098823;28;20254;-70
2024/01/12 11:56:26;;;;;;;13.23;11.82;;;17.60;50.90;;;;;;5074756;28;20302;-69
2024/01/12 11:58:54;;;;;;;13.40;11.40;;;17.60;50.90;;;;;;5093380;28;20213;-70
2024/01/12 12:01:20;;;;;;;13.98;12.48;;;17.60;51.00;;;;;;5075243;28;20185;-68
2024/01/12 12:03:46;;;;;;;13.70;12.30;;;17.60;51.00;;;;;;5091247;28;20306;-67
2024/01/12 12:06:12;;;;;;;13.73;12.32;;;17.60;51.00;;;;;;5091814;28;20276;-69
2024/01/12 12:08:42;;;;;;;13.07;11.70;;;17.60;51.00;;;;;;5096625;28;20184;-69
2024/01/12 12:11:08;;;;;;;12.85;11.50;;;17.60;51.00;;;;;;5079531;28;20677;-70
2024/01/12 12:13:35;;;;;;;12.50;11.20;;;17.60;51.10;;;;;;5079716;28;20262;-70
2024/01/12 12:16:03;;;;;;;12.63;11.38;;;17.60;51.20;;;;;;5094983;28;20197;-69
2024/01/12 12:18:33;;;;;;;12.98;11.68;;;17.60;51.00;;;;;;5091456;28;20216;-69
2024/01/12 12:21:03;;;;;;;12.38;11.07;;;17.60;51.10;;;;;;5092995;28;20263;-69
2024/01/12 12:23:30;;;;;;;12.30;11.02;;;17.70;51.20;;;;;;5092130;28;20196;-69
2024/01/12 12:25:56;;;;;;;12.90;11.63;;;17.70;51.20;;;;;;5073991;28;20185;-69